createdAt,value
2019-01-25T00:04:38.152Z,-4.30
2019-01-25T00:07:31.809Z,-4.30
2019-01-25T00:10:37.936Z,-4.30
2019-01-25T00:13:10.278Z,-4.30
2019-01-25T00:18:51.570Z,-4.40
2019-01-25T00:21:27.469Z,-4.40
2019-01-25T00:24:00.658Z,-4.40
2019-01-25T00:26:33.944Z,-4.30
2019-01-25T00:29:10.137Z,-4.30
2019-01-25T00:31:42.197Z,-4.30
2019-01-25T00:34:13.570Z,-4.30
2019-01-25T00:36:46.943Z,-4.40
2019-01-25T00:39:20.120Z,-4.40
2019-01-25T00:41:55.278Z,-4.40
2019-01-25T00:44:27.467Z,-4.40
2019-01-25T00:47:00.175Z,-4.40
2019-01-25T00:49:39.839Z,-4.40
2019-01-25T00:52:11.622Z,-4.40
2019-01-25T00:54:42.595Z,-4.40
2019-01-25T00:57:22.189Z,-4.40
2019-01-25T00:59:58.919Z,-4.40
2019-01-25T01:02:38.302Z,-4.40
2019-01-25T01:05:16.287Z,-4.40
2019-01-25T01:08:08.139Z,-4.40
2019-01-25T01:10:53.009Z,-4.30
2019-01-25T01:13:29.680Z,-4.40
2019-01-25T01:16:12.988Z,-4.40
2019-01-25T01:18:51.715Z,-4.30
2019-01-25T01:21:23.459Z,-4.30
2019-01-25T01:23:56.084Z,-4.40
2019-01-25T01:26:55.267Z,-4.30
2019-01-25T01:29:31.870Z,-4.30
2019-01-25T01:32:17.747Z,-4.30
2019-01-25T01:34:54.502Z,-4.40
2019-01-25T01:38:11.130Z,-4.40
2019-01-25T01:40:57.442Z,-4.30
2019-01-25T01:43:39.324Z,-4.30
2019-01-25T01:46:35.716Z,-4.40
2019-01-25T01:49:15.647Z,-4.40
2019-01-25T01:51:50.585Z,-4.30
2019-01-25T01:54:34.790Z,-4.30
2019-01-25T01:57:31.446Z,-4.30
2019-01-25T02:00:06.997Z,-4.40
2019-01-25T02:02:40.325Z,-4.30
2019-01-25T02:05:30.092Z,-4.30
2019-01-25T02:08:06.813Z,-4.30
2019-01-25T02:10:52.639Z,-4.30
2019-01-25T02:13:36.264Z,-4.30
2019-01-25T02:16:27.768Z,-4.30
2019-01-25T02:19:29.890Z,-4.40
2019-01-25T02:22:03.324Z,-4.40
2019-01-25T02:24:33.990Z,-4.50
2019-01-25T02:27:15.918Z,-4.40
2019-01-25T02:30:12.197Z,-4.40
2019-01-25T02:33:22.119Z,-4.40
2019-01-25T02:36:07.140Z,-4.40
2019-01-25T02:39:02.394Z,-4.40
2019-01-25T02:41:41.613Z,-4.40
2019-01-25T02:44:23.247Z,-4.50
2019-01-25T02:47:05.347Z,-4.50
2019-01-25T02:49:43.294Z,-4.60
2019-01-25T02:52:16.550Z,-4.60
2019-01-25T02:55:31.103Z,-4.60
2019-01-25T02:58:08.003Z,-4.70
2019-01-25T03:04:07.378Z,-4.70
2019-01-25T03:06:49.833Z,-4.90
2019-01-25T03:09:29.804Z,-5.00
2019-01-25T03:12:10.732Z,-5.00
2019-01-25T03:15:02.981Z,-4.90
2019-01-25T03:17:47.396Z,-4.90
2019-01-25T03:20:39.224Z,-4.90
2019-01-25T03:23:46.370Z,-4.80
2019-01-25T03:26:19.755Z,-4.80
2019-01-25T03:29:05.220Z,-4.80
2019-01-25T03:31:45.220Z,-4.90
2019-01-25T03:34:18.346Z,-4.90
2019-01-25T03:36:58.819Z,-4.90
2019-01-25T03:39:30.341Z,-4.80
2019-01-25T03:42:00.757Z,-4.80
2019-01-25T03:44:31.037Z,-4.80
2019-01-25T03:47:15.255Z,-4.70
2019-01-25T03:49:45.597Z,-4.70
2019-01-25T03:52:15.780Z,-4.60
2019-01-25T03:54:56.574Z,-4.60
2019-01-25T03:57:32.144Z,-4.60
2019-01-25T04:00:13.202Z,-4.70
2019-01-25T04:02:44.689Z,-4.70
2019-01-25T04:05:17.714Z,-4.70
2019-01-25T04:07:50.537Z,-4.80
2019-01-25T04:10:22.557Z,-4.90
2019-01-25T04:13:00.240Z,-4.90
2019-01-25T04:15:35.952Z,-4.90
2019-01-25T04:18:12.701Z,-4.90
2019-01-25T04:20:47.129Z,-5.00
2019-01-25T04:23:18.413Z,-5.00
2019-01-25T04:25:55.287Z,-5.20
2019-01-25T04:28:28.455Z,-5.20
2019-01-25T04:31:02.646Z,-5.30
2019-01-25T04:33:39.260Z,-5.50
2019-01-25T04:36:14.314Z,-5.50
2019-01-25T04:38:46.576Z,-5.50
2019-01-25T04:41:22.703Z,-5.50
2019-01-25T04:43:54.490Z,-5.50
2019-01-25T04:46:42.677Z,-5.40
2019-01-25T04:49:41.432Z,-5.40
2019-01-25T04:52:32.353Z,-5.30
2019-01-25T04:55:21.961Z,-5.30
2019-01-25T04:57:53.955Z,-5.30
2019-01-25T05:00:27.238Z,-5.30
2019-01-25T05:03:12.689Z,-5.30
2019-01-25T05:05:56.699Z,-5.30
2019-01-25T05:08:31.773Z,-5.30
2019-01-25T05:11:20.026Z,-5.30
2019-01-25T05:13:49.005Z,-5.30
2019-01-25T05:16:18.586Z,-5.30
2019-01-25T05:18:48.159Z,-5.30
2019-01-25T05:21:23.318Z,-5.30
2019-01-25T05:23:53.488Z,-5.30
2019-01-25T05:26:23.272Z,-5.30
2019-01-25T05:28:52.857Z,-5.30
2019-01-25T05:31:26.014Z,-5.30
2019-01-25T05:33:57.009Z,-5.30
2019-01-25T05:36:26.703Z,-5.30
2019-01-25T05:38:56.255Z,-5.30
2019-01-25T05:41:28.658Z,-5.30
2019-01-25T05:43:57.022Z,-5.40
2019-01-25T05:46:26.542Z,-5.40
2019-01-25T05:48:56.070Z,-5.30
2019-01-25T05:51:33.388Z,-5.30
2019-01-25T05:53:56.752Z,-5.30
2019-01-25T05:56:26.263Z,-5.40
2019-01-25T05:58:55.619Z,-5.40
2019-01-25T06:01:26.412Z,-5.50
2019-01-25T06:03:56.070Z,-5.40
2019-01-25T06:06:25.405Z,-5.40
2019-01-25T06:08:54.767Z,-5.40
2019-01-25T06:11:24.066Z,-5.40
2019-01-25T06:13:53.404Z,-5.50
2019-01-25T06:16:22.979Z,-5.50
2019-01-25T06:18:52.384Z,-5.50
2019-01-25T06:21:21.747Z,-5.50
2019-01-25T06:23:54.887Z,-5.50
2019-01-25T06:26:24.230Z,-5.50
2019-01-25T06:28:53.597Z,-5.50
2019-01-25T06:31:23.502Z,-5.50
2019-01-25T06:33:52.867Z,-5.50
2019-01-25T06:36:22.161Z,-5.50
2019-01-25T06:38:51.485Z,-5.50
2019-01-25T06:41:20.821Z,-5.50
2019-01-25T06:43:50.313Z,-5.50
2019-01-25T06:46:19.659Z,-5.50
2019-01-25T06:48:49.239Z,-5.50
2019-01-25T06:51:18.546Z,-5.50
2019-01-25T06:53:47.879Z,-5.50
2019-01-25T06:56:17.354Z,-5.50
2019-01-25T06:59:04.474Z,-5.50
2019-01-25T07:01:44.348Z,-5.50
2019-01-25T07:04:13.650Z,-5.50
2019-01-25T07:06:43.014Z,-5.40
2019-01-25T07:09:13.360Z,-5.40
2019-01-25T07:11:43.062Z,-5.40
2019-01-25T07:14:12.411Z,-5.40
2019-01-25T07:16:41.777Z,-5.30
2019-01-25T07:19:11.061Z,-5.30
2019-01-25T07:21:40.407Z,-5.20
2019-01-25T07:24:09.677Z,-5.30
2019-01-25T07:26:39.374Z,-5.30
2019-01-25T07:29:08.715Z,-5.30
2019-01-25T07:31:38.381Z,-5.30
2019-01-25T07:34:08.913Z,-5.30
2019-01-25T07:36:38.308Z,-5.20
2019-01-25T07:39:21.051Z,-5.20
2019-01-25T07:41:50.450Z,-5.10
2019-01-25T07:44:19.790Z,-5.10
2019-01-25T07:46:49.115Z,-5.10
2019-01-25T07:49:18.428Z,-5.00
2019-01-25T07:51:48.085Z,-4.90
2019-01-25T07:54:17.458Z,-4.80
2019-01-25T07:56:46.831Z,-4.70
2019-01-25T07:59:16.180Z,-4.60
2019-01-25T08:01:45.591Z,-4.60
2019-01-25T08:04:15.153Z,-4.50
2019-01-25T08:06:47.433Z,-4.60
2019-01-25T08:09:28.402Z,-4.50
2019-01-25T08:11:57.814Z,-4.50
2019-01-25T08:14:27.143Z,-4.50
2019-01-25T08:16:56.886Z,-4.60
2019-01-25T08:19:26.309Z,-4.40
2019-01-25T08:21:55.871Z,-4.30
2019-01-25T08:24:25.574Z,-4.30
2019-01-25T08:26:57.001Z,-4.20
2019-01-25T08:29:28.147Z,-4.00
2019-01-25T08:31:57.507Z,-3.70
2019-01-25T08:34:26.957Z,-3.50
2019-01-25T08:36:56.495Z,-3.40
2019-01-25T08:39:26.020Z,-3.60
2019-01-25T08:41:55.364Z,-3.60
2019-01-25T08:44:25.218Z,-4.00
2019-01-25T08:46:54.544Z,-4.00
2019-01-25T08:49:26.493Z,-4.10
2019-01-25T08:51:55.908Z,-3.80
2019-01-25T08:54:25.274Z,-3.70
2019-01-25T08:56:54.640Z,-3.40
2019-01-25T08:59:25.483Z,-2.80
2019-01-25T09:01:54.924Z,-2.50
2019-01-25T09:04:24.285Z,-2.70
2019-01-25T09:06:53.835Z,-2.90
2019-01-25T09:09:23.243Z,-3.10
2019-01-25T09:11:52.610Z,-3.20
2019-01-25T09:14:21.981Z,-3.20
2019-01-25T09:16:51.391Z,-3.20
2019-01-25T09:19:20.863Z,-3.00
2019-01-25T09:21:50.331Z,-3.00
2019-01-25T09:24:19.724Z,-3.00
2019-01-25T09:26:49.078Z,-2.40
2019-01-25T09:29:18.443Z,-2.30
2019-01-25T09:31:47.751Z,-2.10
2019-01-25T09:34:17.038Z,-1.70
2019-01-25T09:36:46.599Z,-1.50
2019-01-25T09:39:15.901Z,-1.60
2019-01-25T09:41:45.281Z,-1.40
2019-01-25T09:44:14.580Z,-1.70
2019-01-25T09:46:43.944Z,-1.80
2019-01-25T09:49:13.246Z,-2.10
2019-01-25T09:51:42.778Z,-2.10
2019-01-25T09:54:12.107Z,-1.70
2019-01-25T09:56:41.488Z,-1.80
2019-01-25T09:59:10.835Z,-1.40
2019-01-25T10:01:40.213Z,-1.50
2019-01-25T10:04:09.806Z,-1.60
2019-01-25T10:06:39.145Z,-1.20
2019-01-25T10:09:09.706Z,-0.70
2019-01-25T10:11:39.075Z,-0.70
2019-01-25T10:14:08.443Z,-1.60
2019-01-25T10:16:38.214Z,-1.70
2019-01-25T10:19:07.558Z,-1.40
2019-01-25T10:21:36.903Z,-1.30
2019-01-25T10:24:06.259Z,-1.30
2019-01-25T10:26:35.507Z,-1.00
2019-01-25T10:29:05.153Z,-1.20
2019-01-25T10:31:34.519Z,-0.80
2019-01-25T10:34:03.844Z,-0.80
2019-01-25T10:36:33.146Z,-0.80
2019-01-25T10:39:02.686Z,-0.80
2019-01-25T10:41:32.023Z,-0.80
2019-01-25T10:44:01.435Z,-0.60
2019-01-25T10:46:30.733Z,-1.00
2019-01-25T10:49:00.125Z,-0.90
2019-01-25T10:51:29.441Z,-1.20
2019-01-25T10:53:58.841Z,-1.30
2019-01-25T10:56:28.151Z,-1.10
2019-01-25T10:58:57.642Z,-1.00
2019-01-25T11:01:26.995Z,-0.70
2019-01-25T11:03:56.369Z,-0.50
2019-01-25T11:06:25.656Z,-0.30
2019-01-25T11:08:55.026Z,0.00
2019-01-25T11:11:24.341Z,-0.40
2019-01-25T11:13:53.847Z,-0.80
2019-01-25T11:16:23.204Z,-0.90
2019-01-25T11:18:52.620Z,-1.00
2019-01-25T11:21:21.948Z,-0.60
2019-01-25T11:23:51.262Z,-0.60
2019-01-25T11:26:20.615Z,-0.40
2019-01-25T11:28:50.094Z,0.10
2019-01-25T11:31:19.452Z,0.70
2019-01-25T11:33:48.772Z,0.80
2019-01-25T11:36:18.130Z,0.90
2019-01-25T11:38:47.445Z,0.50
2019-01-25T11:41:16.800Z,0.30
2019-01-25T11:43:46.110Z,0.10
2019-01-25T11:46:15.466Z,0.40
2019-01-25T11:48:44.942Z,0.30
2019-01-25T11:51:14.269Z,0.30
2019-01-25T11:53:43.594Z,-0.10
2019-01-25T11:56:12.955Z,0.20
2019-01-25T11:58:42.295Z,0.20
2019-01-25T12:01:11.649Z,-0.10
2019-01-25T12:03:41.038Z,0.00
2019-01-25T12:06:10.494Z,0.00
2019-01-25T12:08:39.838Z,0.40
2019-01-25T12:11:09.257Z,0.10
2019-01-25T12:13:38.622Z,0.00
2019-01-25T12:16:07.978Z,-0.20
2019-01-25T12:18:37.460Z,-0.10
2019-01-25T12:21:06.852Z,-0.40
2019-01-25T12:23:36.295Z,-0.40
2019-01-25T12:26:05.697Z,-0.40
2019-01-25T12:28:35.036Z,-0.70
2019-01-25T12:31:04.713Z,-1.10
2019-01-25T12:33:34.176Z,-1.00
2019-01-25T12:36:03.492Z,-0.80
2019-01-25T12:38:32.811Z,-0.90
2019-01-25T12:41:02.251Z,-0.80
2019-01-25T12:43:31.815Z,-0.60
2019-01-25T12:46:01.177Z,-0.10
2019-01-25T12:48:30.563Z,0.20
2019-01-25T12:51:04.567Z,0.40
2019-01-25T12:53:34.525Z,0.10
2019-01-25T12:56:03.915Z,0.30
2019-01-25T12:58:33.364Z,0.50
2019-01-25T13:01:02.679Z,0.20
2019-01-25T13:03:32.142Z,-0.30
2019-01-25T13:06:01.498Z,-0.30
2019-01-25T13:08:30.959Z,-0.30
2019-01-25T13:11:00.369Z,-0.50
2019-01-25T13:13:31.735Z,-0.40
2019-01-25T13:16:00.990Z,0.10
2019-01-25T13:18:30.459Z,0.40
2019-01-25T13:20:59.840Z,0.10
2019-01-25T13:23:29.194Z,0.00
2019-01-25T13:25:58.496Z,-0.50
2019-01-25T13:28:28.002Z,-0.50
2019-01-25T13:30:57.431Z,-0.40
2019-01-25T13:33:26.905Z,-0.40
2019-01-25T13:35:56.280Z,-0.40
2019-01-25T13:38:25.651Z,-0.20
2019-01-25T13:40:55.021Z,-0.10
2019-01-25T13:43:24.374Z,-0.10
2019-01-25T13:45:53.786Z,-0.10
2019-01-25T13:48:23.118Z,-0.30
2019-01-25T13:50:52.493Z,-0.30
2019-01-25T13:53:21.850Z,-0.30
2019-01-25T13:55:51.259Z,-0.30
2019-01-25T13:58:20.610Z,-0.40
2019-01-25T14:00:50.103Z,-0.50
2019-01-25T14:03:19.490Z,-0.30
2019-01-25T14:05:48.896Z,-0.40
2019-01-25T14:08:18.335Z,-0.60
2019-01-25T14:10:47.816Z,-0.60
2019-01-25T14:13:17.564Z,-0.70
2019-01-25T14:15:47.237Z,-0.70
2019-01-25T14:18:16.909Z,-0.70
2019-01-25T14:20:46.551Z,-0.50
2019-01-25T14:23:16.519Z,-0.40
2019-01-25T14:25:46.284Z,-0.60
2019-01-25T14:28:15.943Z,-0.80
2019-01-25T14:30:45.744Z,-0.90
2019-01-25T14:33:33.182Z,-0.80
2019-01-25T14:36:02.906Z,-0.70
2019-01-25T14:38:32.597Z,-0.70
2019-01-25T14:41:02.254Z,-0.70
2019-01-25T14:43:31.853Z,-0.70
2019-01-25T14:46:01.377Z,-0.70
2019-01-25T14:48:30.954Z,-0.60
2019-01-25T14:51:00.515Z,-0.50
2019-01-25T14:53:30.317Z,-0.50
2019-01-25T14:55:59.917Z,-0.60
2019-01-25T14:58:29.506Z,-0.70
2019-01-25T15:00:59.051Z,-0.50
2019-01-25T15:06:45.602Z,-0.70
2019-01-25T15:09:15.296Z,-0.80
2019-01-25T15:11:44.862Z,-0.80
2019-01-25T15:14:14.485Z,-1.00
2019-01-25T15:16:44.248Z,-1.00
2019-01-25T15:19:13.836Z,-1.00
2019-01-25T15:21:43.622Z,-1.10
2019-01-25T15:24:13.184Z,-1.00
2019-01-25T15:26:43.251Z,-1.10
2019-01-25T15:29:16.125Z,-1.10
2019-01-25T15:31:45.683Z,-1.10
2019-01-25T15:34:15.706Z,-1.10
2019-01-25T15:36:45.339Z,-1.20
2019-01-25T15:39:15.092Z,-1.20
2019-01-25T15:41:44.626Z,-1.10
2019-01-25T15:44:16.385Z,-1.20
2019-01-25T15:46:45.955Z,-1.10
2019-01-25T15:49:16.853Z,-1.10
2019-01-25T15:51:46.415Z,-1.20
2019-01-25T15:54:16.152Z,-1.30
2019-01-25T15:56:45.753Z,-1.30
2019-01-25T15:59:15.418Z,-1.30
2019-01-25T16:01:44.978Z,-1.40
2019-01-25T16:04:14.612Z,-1.40
2019-01-25T16:06:44.329Z,-1.50
2019-01-25T16:09:14.912Z,-1.50
2019-01-25T16:11:50.980Z,-1.50
2019-01-25T16:14:20.693Z,-1.50
2019-01-25T16:16:50.294Z,-1.60
2019-01-25T16:19:20.079Z,-1.60
2019-01-25T16:25:35.656Z,-1.60
2019-01-25T16:28:05.705Z,-1.60
2019-01-25T16:30:37.877Z,-1.60
2019-01-25T16:33:07.937Z,-1.60
2019-01-25T16:35:37.704Z,-1.60
2019-01-25T16:38:07.583Z,-1.60
2019-01-25T16:40:37.223Z,-1.60
2019-01-25T16:43:08.921Z,-1.70
2019-01-25T16:45:40.812Z,-1.70
2019-01-25T16:48:11.752Z,-1.70
2019-01-25T16:50:41.577Z,-1.70
2019-01-25T16:53:13.899Z,-1.70
2019-01-25T16:55:43.595Z,-1.70
2019-01-25T16:58:13.216Z,-1.60
2019-01-25T17:00:45.217Z,-1.60
2019-01-25T17:03:32.712Z,-1.70
2019-01-25T17:06:02.321Z,-1.70
2019-01-25T17:09:25.780Z,-1.60
2019-01-25T17:11:55.399Z,-1.70
2019-01-25T17:14:25.035Z,-1.70
2019-01-25T17:16:54.978Z,-1.60
2019-01-25T17:19:24.946Z,-1.60
2019-01-25T17:21:54.591Z,-1.60
2019-01-25T17:24:24.174Z,-1.60
2019-01-25T17:26:53.800Z,-1.60
2019-01-25T17:29:23.765Z,-1.60
2019-01-25T17:31:53.890Z,-1.60
2019-01-25T17:34:23.780Z,-1.50
2019-01-25T17:36:53.480Z,-1.50
2019-01-25T17:39:23.087Z,-1.50
2019-01-25T17:41:52.759Z,-1.50
2019-01-25T17:44:22.522Z,-1.50
2019-01-25T17:46:52.143Z,-1.50
2019-01-25T17:49:21.865Z,-1.50
2019-01-25T17:51:51.532Z,-1.50
2019-01-25T17:54:21.122Z,-1.50
2019-01-25T17:56:50.850Z,-1.50
2019-01-25T17:59:20.489Z,-1.50
2019-01-25T18:02:25.663Z,-1.50
2019-01-25T18:04:55.259Z,-1.60
2019-01-25T18:07:24.913Z,-1.50
2019-01-25T18:09:54.485Z,-1.50
2019-01-25T18:12:24.316Z,-1.50
2019-01-25T18:14:53.915Z,-1.50
2019-01-25T18:17:23.490Z,-1.50
2019-01-25T18:19:53.215Z,-1.50
2019-01-25T18:22:23.047Z,-1.50
2019-01-25T18:24:52.666Z,-1.50
2019-01-25T18:27:22.427Z,-1.60
2019-01-25T18:29:56.772Z,-1.60
2019-01-25T18:32:27.505Z,-1.50
2019-01-25T18:34:59.352Z,-1.50
2019-01-25T18:37:29.088Z,-1.50
2019-01-25T18:39:58.683Z,-1.40
2019-01-25T18:42:28.335Z,-1.40
2019-01-25T18:44:58.030Z,-1.50
2019-01-25T18:51:08.537Z,-1.50
2019-01-25T18:53:38.687Z,-1.40
2019-01-25T18:57:02.751Z,-1.40
2019-01-25T18:59:32.407Z,-1.40
2019-01-25T19:02:03.638Z,-1.40
2019-01-25T19:04:33.360Z,-1.40
2019-01-25T19:07:02.970Z,-1.40
2019-01-25T19:09:32.699Z,-1.40
2019-01-25T19:12:03.422Z,-1.40
2019-01-25T19:14:33.064Z,-1.40
2019-01-25T19:17:03.092Z,-1.30
2019-01-25T19:19:34.320Z,-1.40
2019-01-25T19:22:03.937Z,-1.30
2019-01-25T19:24:33.603Z,-1.40
2019-01-25T19:27:03.112Z,-1.30
2019-01-25T19:29:32.672Z,-1.30
2019-01-25T19:32:02.342Z,-1.30
2019-01-25T19:34:31.979Z,-1.30
2019-01-25T19:37:04.205Z,-1.30
2019-01-25T19:39:33.932Z,-1.30
2019-01-25T19:42:03.552Z,-1.40
2019-01-25T19:44:33.278Z,-1.40
2019-01-25T19:47:02.992Z,-1.40
2019-01-25T19:49:32.683Z,-1.40
2019-01-25T19:52:02.303Z,-1.40
2019-01-25T19:54:31.925Z,-1.40
2019-01-25T19:57:01.466Z,-1.30
2019-01-25T19:59:31.049Z,-1.30
2019-01-25T20:02:00.653Z,-1.30
2019-01-25T20:04:30.216Z,-1.30
2019-01-25T20:06:59.759Z,-1.30
2019-01-25T20:09:29.334Z,-1.30
2019-01-25T20:11:59.619Z,-1.30
2019-01-25T20:14:29.374Z,-1.20
2019-01-25T20:16:59.028Z,-1.20
2019-01-25T20:19:28.616Z,-1.10
2019-01-25T20:21:58.140Z,-1.10
2019-01-25T20:24:47.034Z,-1.10
2019-01-25T20:27:16.617Z,-1.10
2019-01-25T20:29:46.426Z,-1.10
2019-01-25T20:32:16.170Z,-1.00
2019-01-25T20:34:46.171Z,-1.00
2019-01-25T20:37:15.768Z,-1.00
2019-01-25T20:39:45.458Z,-1.00
2019-01-25T20:42:15.053Z,-1.00
2019-01-25T20:44:44.701Z,-0.90
2019-01-25T20:47:14.315Z,-1.00
2019-01-25T20:49:47.514Z,-0.90
2019-01-25T20:52:17.109Z,-1.00
2019-01-25T20:54:46.758Z,-0.90
2019-01-25T20:57:34.556Z,-1.00
2019-01-25T21:00:08.517Z,-1.10
2019-01-25T21:02:36.320Z,-1.10
2019-01-25T21:05:10.590Z,-1.10
2019-01-25T21:07:40.172Z,-1.10
2019-01-25T21:10:12.504Z,-1.10
2019-01-25T21:12:42.206Z,-1.20
2019-01-25T21:15:13.550Z,-1.20
2019-01-25T21:17:43.092Z,-1.20
2019-01-25T21:20:19.694Z,-1.20
2019-01-25T21:22:49.374Z,-1.20
2019-01-25T21:25:19.108Z,-1.10
2019-01-25T21:27:48.679Z,-1.10
2019-01-25T21:30:29.812Z,-1.00
2019-01-25T21:32:59.499Z,-0.90
2019-01-25T21:35:29.154Z,-0.90
2019-01-25T21:37:58.739Z,-0.80
2019-01-25T21:40:29.876Z,-0.80
2019-01-25T21:42:59.482Z,-0.80
2019-01-25T21:45:30.965Z,-0.80
2019-01-25T21:48:01.079Z,-0.70
2019-01-25T21:50:33.204Z,-0.70
2019-01-25T21:53:02.801Z,-0.70
2019-01-25T21:55:32.377Z,-0.70
2019-01-25T21:58:05.266Z,-0.70
2019-01-25T22:00:33.972Z,-0.60
2019-01-25T22:03:05.248Z,-0.60
2019-01-25T22:05:34.943Z,-0.60
2019-01-25T22:08:05.261Z,-0.60
2019-01-25T22:10:39.965Z,-0.60
2019-01-25T22:13:12.091Z,-0.60
2019-01-25T22:15:41.811Z,-0.50
2019-01-25T22:18:17.105Z,-0.60
2019-01-25T22:20:46.742Z,-0.60
2019-01-25T22:23:18.460Z,-0.50
2019-01-25T22:25:48.103Z,-0.50
2019-01-25T22:28:20.520Z,-0.50
2019-01-25T22:30:50.069Z,-0.50
2019-01-25T22:33:19.717Z,-0.50
2019-01-25T22:35:49.666Z,-0.50
2019-01-25T22:38:21.188Z,-0.50
2019-01-25T22:40:50.803Z,-0.50
2019-01-25T22:43:20.366Z,-0.50
2019-01-25T22:45:49.960Z,-0.50
2019-01-25T22:48:19.870Z,-0.50
2019-01-25T22:50:49.429Z,-0.50
2019-01-25T22:53:19.201Z,-0.50
2019-01-25T22:55:48.765Z,-0.40
2019-01-25T22:58:18.312Z,-0.40
2019-01-25T23:01:15.178Z,-0.40
2019-01-25T23:04:17.680Z,-0.50
2019-01-25T23:06:50.727Z,-0.50
2019-01-25T23:09:35.576Z,-0.40
2019-01-25T23:12:06.181Z,-0.30
2019-01-25T23:14:35.829Z,-0.30
2019-01-25T23:17:05.670Z,-0.40
2019-01-25T23:19:35.160Z,-0.40
2019-01-25T23:22:05.039Z,-0.40
2019-01-25T23:24:34.535Z,-0.50
2019-01-25T23:27:04.119Z,-0.70
2019-01-25T23:29:33.636Z,-0.70
2019-01-25T23:32:03.154Z,-0.70
2019-01-25T23:34:32.721Z,-0.80
2019-01-25T23:37:02.252Z,-0.90
2019-01-25T23:39:31.786Z,-0.80
2019-01-25T23:42:01.339Z,-0.90
2019-01-25T23:44:30.855Z,-0.90
2019-01-25T23:47:00.614Z,-0.90
2019-01-25T23:49:47.914Z,-0.90
2019-01-25T23:52:17.567Z,-0.90
2019-01-25T23:54:47.030Z,-0.90
2019-01-25T23:57:16.552Z,-0.80
2019-01-25T23:59:46.148Z,-0.70
